Terminal Aerodrome Forecast
Issued by NWS

Home | Current Version | Previous Version | Text Only | Print | Product List | Glossary On
Versions: 1 2 3 4 5 6 7 8 9 10 11 12 13 14 15 16 17 18 19
452
FTUS41 KBGM 152329
TAFELM
TAF
KELM 152329Z 1600/1624 23005KT P6SM SCT060 OVC200
     FM161600 31012KT P6SM -SHSN OVC045=

USA.gov is the U.S. government's official web portal to all federal, state and local government web resources and services.